Terminal Aerodrome Forecast
Issued by NWS Wakefield, VA

Home | Current Version | Previous Version | Text Only | Print | Product List | Glossary On
Versions: 1 2 3 4 5 6 7 8 9 10 11 12
000
FTUS41 KAKQ 191141
TAFECG
TAF
KECG 191141Z 1912/2012 22015G25KT P6SM -RA SCT025 BKN045
      WS020/22050KT
     FM191300 25018G29KT P6SM VCSH BKN060
     FM191400 27018G29KT P6SM BKN150
     FM200000 30014G21KT P6SM SKC=

USA.gov is the U.S. government's official web portal to all federal, state and local government web resources and services.